sensor_id;sensor_type;location;lat;lon;timestamp;P1;durP1;ratioP1;P2;durP2;ratioP2
74342;SDS011;62767;50.300;8.070;2024-02-26T00:02:16;2.17;;;1.40;;
74342;SDS011;62767;50.300;8.070;2024-02-26T00:04:42;2.38;;;1.48;;
74342;SDS011;62767;50.300;8.070;2024-02-26T00:07:07;2.45;;;1.40;;
74342;SDS011;62767;50.300;8.070;2024-02-26T00:09:33;3.05;;;1.65;;
74342;SDS011;62767;50.300;8.070;2024-02-26T00:12:01;2.83;;;1.45;;
74342;SDS011;62767;50.300;8.070;2024-02-26T00:14:29;2.75;;;1.45;;
74342;SDS011;62767;50.300;8.070;2024-02-26T00:16:55;3.13;;;1.70;;
74342;SDS011;62767;50.300;8.070;2024-02-26T00:19:20;2.65;;;1.55;;
74342;SDS011;62767;50.300;8.070;2024-02-26T00:21:46;2.78;;;1.55;;
74342;SDS011;62767;50.300;8.070;2024-02-26T00:24:11;2.55;;;1.40;;
74342;SDS011;62767;50.300;8.070;2024-02-26T00:26:37;2.53;;;1.52;;
74342;SDS011;62767;50.300;8.070;2024-02-26T00:29:02;2.65;;;1.50;;
74342;SDS011;62767;50.300;8.070;2024-02-26T00:31:28;2.35;;;1.45;;
74342;SDS011;62767;50.300;8.070;2024-02-26T00:33:54;2.08;;;1.30;;
74342;SDS011;62767;50.300;8.070;2024-02-26T00:36:19;2.97;;;1.73;;
74342;SDS011;62767;50.300;8.070;2024-02-26T00:38:45;1.83;;;1.27;;
74342;SDS011;62767;50.300;8.070;2024-02-26T00:41:16;2.75;;;1.35;;
74342;SDS011;62767;50.300;8.070;2024-02-26T00:43:42;2.90;;;1.33;;
74342;SDS011;62767;50.300;8.070;2024-02-26T00:46:07;2.78;;;1.63;;
74342;SDS011;62767;50.300;8.070;2024-02-26T00:48:33;2.50;;;1.30;;
74342;SDS011;62767;50.300;8.070;2024-02-26T00:50:58;2.42;;;1.50;;
74342;SDS011;62767;50.300;8.070;2024-02-26T00:53:24;2.42;;;1.58;;
74342;SDS011;62767;50.300;8.070;2024-02-26T00:55:50;2.15;;;1.38;;
74342;SDS011;62767;50.300;8.070;2024-02-26T00:58:16;4.07;;;1.85;;
74342;SDS011;62767;50.300;8.070;2024-02-26T01:00:41;2.50;;;1.48;;
74342;SDS011;62767;50.300;8.070;2024-02-26T01:03:07;2.42;;;1.33;;
74342;SDS011;62767;50.300;8.070;2024-02-26T01:05:33;2.95;;;1.30;;
74342;SDS011;62767;50.300;8.070;2024-02-26T01:07:58;2.80;;;1.40;;
74342;SDS011;62767;50.300;8.070;2024-02-26T01:10:24;2.47;;;1.33;;
74342;SDS011;62767;50.300;8.070;2024-02-26T01:12:50;3.33;;;1.70;;
74342;SDS011;62767;50.300;8.070;2024-02-26T01:15:15;3.15;;;1.60;;
74342;SDS011;62767;50.300;8.070;2024-02-26T01:17:41;2.75;;;1.40;;
74342;SDS011;62767;50.300;8.070;2024-02-26T01:20:06;2.60;;;1.23;;
74342;SDS011;62767;50.300;8.070;2024-02-26T01:22:34;2.28;;;1.42;;
74342;SDS011;62767;50.300;8.070;2024-02-26T01:24:59;2.85;;;1.42;;
74342;SDS011;62767;50.300;8.070;2024-02-26T01:27:25;2.53;;;1.35;;
74342;SDS011;62767;50.300;8.070;2024-02-26T01:29:52;2.45;;;1.42;;
74342;SDS011;62767;50.300;8.070;2024-02-26T01:32:18;3.38;;;1.60;;
74342;SDS011;62767;50.300;8.070;2024-02-26T01:34:43;2.50;;;1.67;;
74342;SDS011;62767;50.300;8.070;2024-02-26T01:37:09;2.17;;;1.35;;
74342;SDS011;62767;50.300;8.070;2024-02-26T01:39:34;2.90;;;1.48;;
74342;SDS011;62767;50.300;8.070;2024-02-26T01:42:00;2.72;;;1.40;;
74342;SDS011;62767;50.300;8.070;2024-02-26T01:44:26;2.33;;;1.38;;
74342;SDS011;62767;50.300;8.070;2024-02-26T01:46:52;2.20;;;1.30;;
74342;SDS011;62767;50.300;8.070;2024-02-26T01:49:18;2.30;;;1.27;;
74342;SDS011;62767;50.300;8.070;2024-02-26T01:51:44;2.33;;;1.30;;
74342;SDS011;62767;50.300;8.070;2024-02-26T01:54:11;2.28;;;1.20;;
74342;SDS011;62767;50.300;8.070;2024-02-26T01:56:37;2.10;;;1.27;;
74342;SDS011;62767;50.300;8.070;2024-02-26T01:59:05;2.72;;;1.48;;
74342;SDS011;62767;50.300;8.070;2024-02-26T02:01:32;2.92;;;1.65;;
74342;SDS011;62767;50.300;8.070;2024-02-26T02:03:59;2.03;;;1.20;;
74342;SDS011;62767;50.300;8.070;2024-02-26T02:06:25;2.90;;;1.55;;
74342;SDS011;62767;50.300;8.070;2024-02-26T02:08:54;2.20;;;1.40;;
74342;SDS011;62767;50.300;8.070;2024-02-26T02:11:20;1.95;;;1.30;;
74342;SDS011;62767;50.300;8.070;2024-02-26T02:13:46;2.45;;;1.27;;
74342;SDS011;62767;50.300;8.070;2024-02-26T02:16:11;2.42;;;1.33;;
74342;SDS011;62767;50.300;8.070;2024-02-26T02:18:37;2.03;;;1.42;;
74342;SDS011;62767;50.300;8.070;2024-02-26T02:21:03;2.75;;;1.30;;
74342;SDS011;62767;50.300;8.070;2024-02-26T02:23:29;2.17;;;1.00;;
74342;SDS011;62767;50.300;8.070;2024-02-26T02:25:54;2.33;;;1.20;;
74342;SDS011;62767;50.300;8.070;2024-02-26T02:28:21;2.53;;;1.20;;
74342;SDS011;62767;50.300;8.070;2024-02-26T02:30:48;2.10;;;1.20;;
74342;SDS011;62767;50.300;8.070;2024-02-26T02:33:14;2.00;;;1.33;;
74342;SDS011;62767;50.300;8.070;2024-02-26T02:35:41;1.65;;;1.23;;
74342;SDS011;62767;50.300;8.070;2024-02-26T02:38:06;2.20;;;1.15;;
74342;SDS011;62767;50.300;8.070;2024-02-26T02:40:32;1.42;;;1.00;;
74342;SDS011;62767;50.300;8.070;2024-02-26T02:42:57;1.60;;;1.10;;
74342;SDS011;62767;50.300;8.070;2024-02-26T02:45:23;2.15;;;1.40;;
74342;SDS011;62767;50.300;8.070;2024-02-26T02:47:49;1.90;;;1.10;;
74342;SDS011;62767;50.300;8.070;2024-02-26T02:50:14;1.35;;;0.90;;
74342;SDS011;62767;50.300;8.070;2024-02-26T02:52:40;2.25;;;1.30;;
74342;SDS011;62767;50.300;8.070;2024-02-26T02:55:05;1.98;;;1.27;;
74342;SDS011;62767;50.300;8.070;2024-02-26T02:57:31;1.70;;;1.02;;
74342;SDS011;62767;50.300;8.070;2024-02-26T02:59:57;2.00;;;1.23;;
74342;SDS011;62767;50.300;8.070;2024-02-26T03:02:23;2.00;;;1.20;;
74342;SDS011;62767;50.300;8.070;2024-02-26T03:07:15;2.50;;;1.30;;
74342;SDS011;62767;50.300;8.070;2024-02-26T03:09:41;1.75;;;1.08;;
74342;SDS011;62767;50.300;8.070;2024-02-26T03:12:07;2.40;;;1.13;;
74342;SDS011;62767;50.300;8.070;2024-02-26T03:14:32;1.95;;;1.10;;
74342;SDS011;62767;50.300;8.070;2024-02-26T03:16:58;1.52;;;0.95;;
74342;SDS011;62767;50.300;8.070;2024-02-26T03:19:23;1.40;;;1.00;;
74342;SDS011;62767;50.300;8.070;2024-02-26T03:21:49;1.45;;;0.98;;
74342;SDS011;62767;50.300;8.070;2024-02-26T03:24:14;1.50;;;0.90;;
74342;SDS011;62767;50.300;8.070;2024-02-26T03:26:40;1.98;;;1.05;;
74342;SDS011;62767;50.300;8.070;2024-02-26T03:29:05;1.77;;;1.10;;
74342;SDS011;62767;50.300;8.070;2024-02-26T03:31:31;1.27;;;0.90;;
74342;SDS011;62767;50.300;8.070;2024-02-26T03:33:56;2.05;;;1.10;;
74342;SDS011;62767;50.300;8.070;2024-02-26T03:36:22;2.35;;;1.17;;
74342;SDS011;62767;50.300;8.070;2024-02-26T03:38:48;1.65;;;1.13;;
74342;SDS011;62767;50.300;8.070;2024-02-26T03:41:14;2.08;;;1.10;;
74342;SDS011;62767;50.300;8.070;2024-02-26T03:43:40;2.42;;;0.95;;
74342;SDS011;62767;50.300;8.070;2024-02-26T03:46:08;1.13;;;0.80;;
74342;SDS011;62767;50.300;8.070;2024-02-26T03:48:36;2.22;;;0.98;;
74342;SDS011;62767;50.300;8.070;2024-02-26T03:51:02;2.08;;;1.10;;
74342;SDS011;62767;50.300;8.070;2024-02-26T03:53:28;4.18;;;1.50;;
74342;SDS011;62767;50.300;8.070;2024-02-26T03:55:54;1.95;;;0.98;;
74342;SDS011;62767;50.300;8.070;2024-02-26T03:58:20;2.30;;;0.98;;
74342;SDS011;62767;50.300;8.070;2024-02-26T04:00:46;2.20;;;1.00;;
74342;SDS011;62767;50.300;8.070;2024-02-26T04:03:15;3.25;;;1.27;;
74342;SDS011;62767;50.300;8.070;2024-02-26T04:05:41;1.05;;;0.80;;
74342;SDS011;62767;50.300;8.070;2024-02-26T04:08:06;1.23;;;0.90;;
74342;SDS011;62767;50.300;8.070;2024-02-26T04:10:36;2.25;;;0.85;;
74342;SDS011;62767;50.300;8.070;2024-02-26T04:13:04;2.13;;;1.10;;
74342;SDS011;62767;50.300;8.070;2024-02-26T04:15:30;2.40;;;1.10;;
74342;SDS011;62767;50.300;8.070;2024-02-26T04:17:55;3.78;;;1.10;;
74342;SDS011;62767;50.300;8.070;2024-02-26T04:20:21;1.63;;;1.00;;
74342;SDS011;62767;50.300;8.070;2024-02-26T04:22:47;1.75;;;1.00;;
74342;SDS011;62767;50.300;8.070;2024-02-26T04:25:12;2.22;;;1.00;;
74342;SDS011;62767;50.300;8.070;2024-02-26T04:27:38;3.33;;;1.10;;
74342;SDS011;62767;50.300;8.070;2024-02-26T04:30:04;2.08;;;1.15;;
74342;SDS011;62767;50.300;8.070;2024-02-26T04:32:31;1.83;;;0.95;;
74342;SDS011;62767;50.300;8.070;2024-02-26T04:34:57;2.33;;;1.13;;
74342;SDS011;62767;50.300;8.070;2024-02-26T04:37:22;1.35;;;0.93;;
74342;SDS011;62767;50.300;8.070;2024-02-26T04:39:48;1.27;;;0.85;;
74342;SDS011;62767;50.300;8.070;2024-02-26T04:42:13;2.67;;;1.10;;
74342;SDS011;62767;50.300;8.070;2024-02-26T04:44:39;1.50;;;0.90;;
74342;SDS011;62767;50.300;8.070;2024-02-26T04:47:04;2.00;;;0.93;;
74342;SDS011;62767;50.300;8.070;2024-02-26T04:49:30;2.05;;;1.05;;
74342;SDS011;62767;50.300;8.070;2024-02-26T04:51:55;1.20;;;0.80;;
74342;SDS011;62767;50.300;8.070;2024-02-26T04:54:21;2.30;;;1.00;;
74342;SDS011;62767;50.300;8.070;2024-02-26T04:56:47;1.27;;;0.77;;
74342;SDS011;62767;50.300;8.070;2024-02-26T04:59:13;2.42;;;0.88;;
74342;SDS011;62767;50.300;8.070;2024-02-26T05:01:39;1.58;;;1.00;;
74342;SDS011;62767;50.300;8.070;2024-02-26T05:04:05;3.10;;;0.98;;
74342;SDS011;62767;50.300;8.070;2024-02-26T05:06:30;1.92;;;0.90;;
74342;SDS011;62767;50.300;8.070;2024-02-26T05:08:56;2.05;;;1.10;;
74342;SDS011;62767;50.300;8.070;2024-02-26T05:11:21;1.67;;;1.00;;
74342;SDS011;62767;50.300;8.070;2024-02-26T05:13:47;2.13;;;1.05;;
74342;SDS011;62767;50.300;8.070;2024-02-26T05:16:13;1.90;;;0.98;;
74342;SDS011;62767;50.300;8.070;2024-02-26T05:18:38;1.40;;;1.00;;
74342;SDS011;62767;50.300;8.070;2024-02-26T05:21:04;3.05;;;1.00;;
74342;SDS011;62767;50.300;8.070;2024-02-26T05:23:29;1.92;;;1.10;;
74342;SDS011;62767;50.300;8.070;2024-02-26T05:25:55;2.70;;;0.95;;
74342;SDS011;62767;50.300;8.070;2024-02-26T05:28:21;1.75;;;1.00;;
74342;SDS011;62767;50.300;8.070;2024-02-26T05:30:46;1.33;;;0.80;;
74342;SDS011;62767;50.300;8.070;2024-02-26T05:33:12;2.17;;;1.10;;
74342;SDS011;62767;50.300;8.070;2024-02-26T05:35:37;1.85;;;0.90;;
74342;SDS011;62767;50.300;8.070;2024-02-26T05:38:03;1.80;;;0.98;;
74342;SDS011;62767;50.300;8.070;2024-02-26T05:40:29;1.25;;;0.82;;
74342;SDS011;62767;50.300;8.070;2024-02-26T05:42:55;2.70;;;1.20;;
74342;SDS011;62767;50.300;8.070;2024-02-26T05:45:21;2.13;;;1.10;;
74342;SDS011;62767;50.300;8.070;2024-02-26T05:47:47;1.63;;;0.93;;
74342;SDS011;62767;50.300;8.070;2024-02-26T05:50:13;1.90;;;1.00;;
74342;SDS011;62767;50.300;8.070;2024-02-26T05:52:40;2.03;;;1.20;;
74342;SDS011;62767;50.300;8.070;2024-02-26T05:55:06;2.10;;;1.05;;
74342;SDS011;62767;50.300;8.070;2024-02-26T05:57:32;1.98;;;1.10;;
74342;SDS011;62767;50.300;8.070;2024-02-26T06:02:36;1.80;;;1.10;;
74342;SDS011;62767;50.300;8.070;2024-02-26T06:05:02;1.30;;;0.98;;
74342;SDS011;62767;50.300;8.070;2024-02-26T06:07:28;3.17;;;1.13;;
74342;SDS011;62767;50.300;8.070;2024-02-26T06:09:53;2.30;;;1.20;;
74342;SDS011;62767;50.300;8.070;2024-02-26T06:12:19;1.70;;;1.10;;
74342;SDS011;62767;50.300;8.070;2024-02-26T06:14:44;2.83;;;1.20;;
74342;SDS011;62767;50.300;8.070;2024-02-26T06:17:10;2.30;;;1.08;;
74342;SDS011;62767;50.300;8.070;2024-02-26T06:19:35;1.75;;;1.10;;
74342;SDS011;62767;50.300;8.070;2024-02-26T06:22:01;2.28;;;1.08;;
74342;SDS011;62767;50.300;8.070;2024-02-26T06:24:26;2.17;;;1.13;;
74342;SDS011;62767;50.300;8.070;2024-02-26T06:26:52;1.42;;;1.00;;
74342;SDS011;62767;50.300;8.070;2024-02-26T06:29:17;3.13;;;1.30;;
74342;SDS011;62767;50.300;8.070;2024-02-26T06:31:43;2.88;;;1.27;;
74342;SDS011;62767;50.300;8.070;2024-02-26T06:34:08;2.53;;;1.30;;
74342;SDS011;62767;50.300;8.070;2024-02-26T06:36:34;1.95;;;1.20;;
74342;SDS011;62767;50.300;8.070;2024-02-26T06:39:00;1.58;;;1.13;;
74342;SDS011;62767;50.300;8.070;2024-02-26T06:41:25;2.20;;;1.27;;
74342;SDS011;62767;50.300;8.070;2024-02-26T06:43:53;2.33;;;1.30;;
74342;SDS011;62767;50.300;8.070;2024-02-26T06:46:19;1.42;;;0.95;;
74342;SDS011;62767;50.300;8.070;2024-02-26T06:48:44;2.38;;;1.38;;
74342;SDS011;62767;50.300;8.070;2024-02-26T06:51:10;1.80;;;1.10;;
74342;SDS011;62767;50.300;8.070;2024-02-26T06:53:35;1.67;;;1.02;;
74342;SDS011;62767;50.300;8.070;2024-02-26T06:56:01;3.80;;;1.33;;
74342;SDS011;62767;50.300;8.070;2024-02-26T06:58:26;2.20;;;1.10;;
74342;SDS011;62767;50.300;8.070;2024-02-26T07:00:52;2.92;;;1.40;;
74342;SDS011;62767;50.300;8.070;2024-02-26T07:03:17;3.50;;;1.50;;
74342;SDS011;62767;50.300;8.070;2024-02-26T07:05:43;2.83;;;1.45;;
74342;SDS011;62767;50.300;8.070;2024-02-26T07:08:10;2.42;;;1.30;;
74342;SDS011;62767;50.300;8.070;2024-02-26T07:10:35;2.03;;;1.13;;
74342;SDS011;62767;50.300;8.070;2024-02-26T07:13:01;2.63;;;1.30;;
74342;SDS011;62767;50.300;8.070;2024-02-26T07:15:26;3.17;;;1.40;;
74342;SDS011;62767;50.300;8.070;2024-02-26T07:17:52;1.85;;;1.30;;
74342;SDS011;62767;50.300;8.070;2024-02-26T07:20:17;1.85;;;1.13;;
74342;SDS011;62767;50.300;8.070;2024-02-26T07:22:43;2.85;;;1.50;;
74342;SDS011;62767;50.300;8.070;2024-02-26T07:25:09;2.22;;;1.30;;
74342;SDS011;62767;50.300;8.070;2024-02-26T07:27:38;1.83;;;1.17;;
74342;SDS011;62767;50.300;8.070;2024-02-26T07:30:06;2.50;;;1.30;;
74342;SDS011;62767;50.300;8.070;2024-02-26T07:35:00;2.28;;;1.20;;
74342;SDS011;62767;50.300;8.070;2024-02-26T07:37:25;2.20;;;1.27;;
74342;SDS011;62767;50.300;8.070;2024-02-26T07:39:50;2.55;;;1.30;;
74342;SDS011;62767;50.300;8.070;2024-02-26T07:42:16;3.15;;;1.50;;
74342;SDS011;62767;50.300;8.070;2024-02-26T07:44:41;2.58;;;1.20;;
74342;SDS011;62767;50.300;8.070;2024-02-26T07:47:08;2.35;;;1.17;;
74342;SDS011;62767;50.300;8.070;2024-02-26T07:49:34;2.53;;;1.42;;
74342;SDS011;62767;50.300;8.070;2024-02-26T07:52:00;2.25;;;1.30;;
74342;SDS011;62767;50.300;8.070;2024-02-26T07:54:25;2.67;;;1.30;;
74342;SDS011;62767;50.300;8.070;2024-02-26T07:56:51;2.70;;;1.30;;
74342;SDS011;62767;50.300;8.070;2024-02-26T07:59:16;2.22;;;1.23;;
74342;SDS011;62767;50.300;8.070;2024-02-26T08:01:42;2.78;;;1.50;;
74342;SDS011;62767;50.300;8.070;2024-02-26T08:04:08;2.97;;;1.42;;
74342;SDS011;62767;50.300;8.070;2024-02-26T08:06:34;2.38;;;1.13;;
74342;SDS011;62767;50.300;8.070;2024-02-26T08:08:59;2.50;;;1.38;;
74342;SDS011;62767;50.300;8.070;2024-02-26T08:11:25;2.60;;;1.30;;
74342;SDS011;62767;50.300;8.070;2024-02-26T08:13:50;3.47;;;1.35;;
74342;SDS011;62767;50.300;8.070;2024-02-26T08:16:15;2.97;;;1.20;;
74342;SDS011;62767;50.300;8.070;2024-02-26T08:18:41;2.53;;;1.30;;
74342;SDS011;62767;50.300;8.070;2024-02-26T08:21:06;1.42;;;1.08;;
74342;SDS011;62767;50.300;8.070;2024-02-26T08:23:33;2.55;;;1.35;;
74342;SDS011;62767;50.300;8.070;2024-02-26T08:25:59;2.90;;;1.40;;
74342;SDS011;62767;50.300;8.070;2024-02-26T08:28:24;2.97;;;1.48;;
74342;SDS011;62767;50.300;8.070;2024-02-26T08:30:50;2.38;;;1.25;;
74342;SDS011;62767;50.300;8.070;2024-02-26T08:33:15;2.13;;;1.02;;
74342;SDS011;62767;50.300;8.070;2024-02-26T08:35:41;2.30;;;1.30;;
74342;SDS011;62767;50.300;8.070;2024-02-26T08:38:06;2.25;;;1.17;;
74342;SDS011;62767;50.300;8.070;2024-02-26T08:40:32;2.67;;;1.40;;
74342;SDS011;62767;50.300;8.070;2024-02-26T08:42:57;3.03;;;1.42;;
74342;SDS011;62767;50.300;8.070;2024-02-26T08:45:23;1.70;;;1.20;;
74342;SDS011;62767;50.300;8.070;2024-02-26T08:47:49;1.80;;;1.13;;
74342;SDS011;62767;50.300;8.070;2024-02-26T08:50:15;2.45;;;1.30;;
74342;SDS011;62767;50.300;8.070;2024-02-26T08:52:40;2.65;;;1.33;;
74342;SDS011;62767;50.300;8.070;2024-02-26T08:55:06;3.65;;;1.50;;
74342;SDS011;62767;50.300;8.070;2024-02-26T08:57:34;3.25;;;1.52;;
74342;SDS011;62767;50.300;8.070;2024-02-26T09:00:00;2.50;;;1.25;;
74342;SDS011;62767;50.300;8.070;2024-02-26T09:02:26;2.03;;;1.30;;
74342;SDS011;62767;50.300;8.070;2024-02-26T09:04:51;1.55;;;1.10;;
74342;SDS011;62767;50.300;8.070;2024-02-26T09:07:20;2.17;;;1.27;;
74342;SDS011;62767;50.300;8.070;2024-02-26T09:09:46;2.27;;;1.23;;
74342;SDS011;62767;50.300;8.070;2024-02-26T09:12:11;2.17;;;1.40;;
74342;SDS011;62767;50.300;8.070;2024-02-26T09:14:37;2.25;;;1.38;;
74342;SDS011;62767;50.300;8.070;2024-02-26T09:17:02;2.55;;;1.30;;
74342;SDS011;62767;50.300;8.070;2024-02-26T09:19:28;2.05;;;1.20;;
74342;SDS011;62767;50.300;8.070;2024-02-26T09:21:54;2.25;;;1.02;;
74342;SDS011;62767;50.300;8.070;2024-02-26T09:24:23;2.15;;;1.30;;
74342;SDS011;62767;50.300;8.070;2024-02-26T09:26:49;2.08;;;1.23;;
74342;SDS011;62767;50.300;8.070;2024-02-26T09:29:14;2.30;;;1.35;;
74342;SDS011;62767;50.300;8.070;2024-02-26T09:31:40;2.45;;;1.17;;
74342;SDS011;62767;50.300;8.070;2024-02-26T09:34:06;2.53;;;1.30;;
74342;SDS011;62767;50.300;8.070;2024-02-26T09:36:33;1.98;;;1.15;;
74342;SDS011;62767;50.300;8.070;2024-02-26T09:38:59;2.83;;;1.30;;
74342;SDS011;62767;50.300;8.070;2024-02-26T09:41:25;1.90;;;1.20;;
74342;SDS011;62767;50.300;8.070;2024-02-26T09:43:53;2.42;;;1.50;;
74342;SDS011;62767;50.300;8.070;2024-02-26T09:46:21;2.67;;;1.20;;
74342;SDS011;62767;50.300;8.070;2024-02-26T09:48:47;2.10;;;1.13;;
74342;SDS011;62767;50.300;8.070;2024-02-26T09:51:13;2.30;;;1.17;;
74342;SDS011;62767;50.300;8.070;2024-02-26T09:53:39;2.13;;;1.15;;
74342;SDS011;62767;50.300;8.070;2024-02-26T09:56:08;1.80;;;1.13;;
74342;SDS011;62767;50.300;8.070;2024-02-26T09:58:33;2.95;;;1.50;;
74342;SDS011;62767;50.300;8.070;2024-02-26T10:01:00;3.15;;;1.50;;
74342;SDS011;62767;50.300;8.070;2024-02-26T10:03:28;2.60;;;1.50;;
74342;SDS011;62767;50.300;8.070;2024-02-26T10:05:59;2.53;;;1.40;;
74342;SDS011;62767;50.300;8.070;2024-02-26T10:08:27;3.80;;;1.70;;
74342;SDS011;62767;50.300;8.070;2024-02-26T10:10:54;2.67;;;1.40;;
74342;SDS011;62767;50.300;8.070;2024-02-26T10:13:19;2.80;;;1.40;;
74342;SDS011;62767;50.300;8.070;2024-02-26T10:15:45;2.45;;;1.40;;
74342;SDS011;62767;50.300;8.070;2024-02-26T10:18:11;2.78;;;1.40;;
74342;SDS011;62767;50.300;8.070;2024-02-26T10:20:36;2.17;;;1.17;;
74342;SDS011;62767;50.300;8.070;2024-02-26T10:23:02;2.55;;;1.50;;
74342;SDS011;62767;50.300;8.070;2024-02-26T10:25:30;2.25;;;1.40;;
74342;SDS011;62767;50.300;8.070;2024-02-26T10:27:59;2.72;;;1.50;;
74342;SDS011;62767;50.300;8.070;2024-02-26T10:30:29;4.10;;;1.65;;
74342;SDS011;62767;50.300;8.070;2024-02-26T10:32:55;3.05;;;1.50;;
74342;SDS011;62767;50.300;8.070;2024-02-26T10:35:21;2.60;;;1.55;;
74342;SDS011;62767;50.300;8.070;2024-02-26T10:37:47;3.08;;;1.38;;
74342;SDS011;62767;50.300;8.070;2024-02-26T10:40:14;2.92;;;1.50;;
74342;SDS011;62767;50.300;8.070;2024-02-26T10:42:41;3.35;;;1.63;;
74342;SDS011;62767;50.300;8.070;2024-02-26T10:45:07;3.80;;;1.70;;
74342;SDS011;62767;50.300;8.070;2024-02-26T10:47:34;2.65;;;1.50;;
74342;SDS011;62767;50.300;8.070;2024-02-26T10:50:04;4.07;;;1.77;;
74342;SDS011;62767;50.300;8.070;2024-02-26T10:52:32;2.55;;;1.50;;
74342;SDS011;62767;50.300;8.070;2024-02-26T10:55:02;3.17;;;1.65;;
74342;SDS011;62767;50.300;8.070;2024-02-26T10:57:29;2.70;;;1.65;;
74342;SDS011;62767;50.300;8.070;2024-02-26T10:59:59;3.60;;;1.92;;
74342;SDS011;62767;50.300;8.070;2024-02-26T11:02:26;4.07;;;1.83;;
74342;SDS011;62767;50.300;8.070;2024-02-26T11:04:52;3.95;;;1.92;;
74342;SDS011;62767;50.300;8.070;2024-02-26T11:07:19;3.85;;;2.00;;
74342;SDS011;62767;50.300;8.070;2024-02-26T11:09:45;3.10;;;1.88;;
74342;SDS011;62767;50.300;8.070;2024-02-26T11:12:17;3.83;;;2.20;;
74342;SDS011;62767;50.300;8.070;2024-02-26T11:14:44;4.60;;;1.90;;
74342;SDS011;62767;50.300;8.070;2024-02-26T11:17:11;3.40;;;1.92;;
74342;SDS011;62767;50.300;8.070;2024-02-26T11:19:38;3.85;;;1.92;;
74342;SDS011;62767;50.300;8.070;2024-02-26T11:22:06;5.00;;;2.30;;
74342;SDS011;62767;50.300;8.070;2024-02-26T11:24:32;3.45;;;2.00;;
74342;SDS011;62767;50.300;8.070;2024-02-26T11:26:58;4.07;;;2.30;;
74342;SDS011;62767;50.300;8.070;2024-02-26T11:29:29;3.95;;;2.28;;
74342;SDS011;62767;50.300;8.070;2024-02-26T11:31:59;4.28;;;2.47;;
74342;SDS011;62767;50.300;8.070;2024-02-26T11:34:25;4.93;;;2.60;;
74342;SDS011;62767;50.300;8.070;2024-02-26T11:36:51;4.95;;;2.60;;
74342;SDS011;62767;50.300;8.070;2024-02-26T11:39:17;4.78;;;2.60;;
74342;SDS011;62767;50.300;8.070;2024-02-26T11:41:43;5.47;;;2.50;;
74342;SDS011;62767;50.300;8.070;2024-02-26T11:44:09;5.72;;;2.80;;
74342;SDS011;62767;50.300;8.070;2024-02-26T11:46:38;5.40;;;2.80;;
74342;SDS011;62767;50.300;8.070;2024-02-26T11:51:52;5.88;;;2.83;;
74342;SDS011;62767;50.300;8.070;2024-02-26T11:59:48;5.03;;;2.70;;
74342;SDS011;62767;50.300;8.070;2024-02-26T12:04:59;5.18;;;2.90;;
74342;SDS011;62767;50.300;8.070;2024-02-26T12:07:25;6.10;;;3.30;;
74342;SDS011;62767;50.300;8.070;2024-02-26T12:09:51;5.70;;;3.13;;
74342;SDS011;62767;50.300;8.070;2024-02-26T12:12:20;4.40;;;2.60;;
74342;SDS011;62767;50.300;8.070;2024-02-26T12:14:53;6.35;;;3.13;;
74342;SDS011;62767;50.300;8.070;2024-02-26T12:17:24;4.75;;;2.78;;
74342;SDS011;62767;50.300;8.070;2024-02-26T12:19:51;5.10;;;2.80;;
74342;SDS011;62767;50.300;8.070;2024-02-26T12:22:18;5.10;;;3.00;;
74342;SDS011;62767;50.300;8.070;2024-02-26T12:24:45;5.60;;;3.03;;
74342;SDS011;62767;50.300;8.070;2024-02-26T12:27:10;5.38;;;3.22;;
74342;SDS011;62767;50.300;8.070;2024-02-26T12:29:36;5.13;;;3.10;;
74342;SDS011;62767;50.300;8.070;2024-02-26T12:32:03;5.30;;;3.10;;
74342;SDS011;62767;50.300;8.070;2024-02-26T12:34:30;5.00;;;3.05;;
74342;SDS011;62767;50.300;8.070;2024-02-26T12:36:56;5.43;;;3.03;;
74342;SDS011;62767;50.300;8.070;2024-02-26T12:39:21;5.95;;;3.35;;
74342;SDS011;62767;50.300;8.070;2024-02-26T12:41:47;6.88;;;3.00;;
74342;SDS011;62767;50.300;8.070;2024-02-26T12:44:18;5.30;;;3.08;;
74342;SDS011;62767;50.300;8.070;2024-02-26T12:46:50;5.00;;;2.58;;
74342;SDS011;62767;50.300;8.070;2024-02-26T12:49:16;5.38;;;2.95;;
74342;SDS011;62767;50.300;8.070;2024-02-26T12:51:43;5.57;;;3.40;;
74342;SDS011;62767;50.300;8.070;2024-02-26T12:56:35;6.25;;;3.25;;
74342;SDS011;62767;50.300;8.070;2024-02-26T12:59:00;6.78;;;2.97;;
74342;SDS011;62767;50.300;8.070;2024-02-26T13:01:27;4.70;;;2.78;;
74342;SDS011;62767;50.300;8.070;2024-02-26T13:03:54;5.72;;;3.08;;
74342;SDS011;62767;50.300;8.070;2024-02-26T13:06:20;5.07;;;2.90;;
74342;SDS011;62767;50.300;8.070;2024-02-26T13:08:47;4.07;;;2.58;;
74342;SDS011;62767;50.300;8.070;2024-02-26T13:11:12;4.72;;;2.75;;
74342;SDS011;62767;50.300;8.070;2024-02-26T13:13:38;5.22;;;2.80;;
74342;SDS011;62767;50.300;8.070;2024-02-26T13:16:05;4.85;;;2.83;;
74342;SDS011;62767;50.300;8.070;2024-02-26T13:18:33;4.45;;;2.65;;
74342;SDS011;62767;50.300;8.070;2024-02-26T13:21:09;4.90;;;2.72;;
74342;SDS011;62767;50.300;8.070;2024-02-26T13:23:36;4.82;;;2.58;;
74342;SDS011;62767;50.300;8.070;2024-02-26T13:28:28;4.72;;;2.72;;
74342;SDS011;62767;50.300;8.070;2024-02-26T13:30:55;5.47;;;2.50;;
74342;SDS011;62767;50.300;8.070;2024-02-26T13:33:22;5.20;;;2.63;;
74342;SDS011;62767;50.300;8.070;2024-02-26T13:35:48;4.60;;;2.58;;
74342;SDS011;62767;50.300;8.070;2024-02-26T13:38:13;4.65;;;2.75;;
74342;SDS011;62767;50.300;8.070;2024-02-26T13:40:39;4.43;;;2.60;;
74342;SDS011;62767;50.300;8.070;2024-02-26T13:43:05;4.03;;;2.42;;
74342;SDS011;62767;50.300;8.070;2024-02-26T13:45:33;4.38;;;2.38;;
74342;SDS011;62767;50.300;8.070;2024-02-26T13:48:06;4.50;;;2.47;;
74342;SDS011;62767;50.300;8.070;2024-02-26T13:50:32;6.47;;;2.67;;
74342;SDS011;62767;50.300;8.070;2024-02-26T13:52:59;4.40;;;2.63;;
74342;SDS011;62767;50.300;8.070;2024-02-26T13:55:28;4.30;;;2.30;;
74342;SDS011;62767;50.300;8.070;2024-02-26T13:57:58;4.85;;;2.60;;
74342;SDS011;62767;50.300;8.070;2024-02-26T14:00:26;4.00;;;2.33;;
74342;SDS011;62767;50.300;8.070;2024-02-26T14:02:53;5.05;;;2.55;;
74342;SDS011;62767;50.300;8.070;2024-02-26T14:05:18;4.28;;;2.47;;
74342;SDS011;62767;50.300;8.070;2024-02-26T14:07:44;4.15;;;2.30;;
74342;SDS011;62767;50.300;8.070;2024-02-26T14:10:12;4.10;;;2.13;;
74342;SDS011;62767;50.300;8.070;2024-02-26T14:12:38;3.90;;;2.10;;
74342;SDS011;62767;50.300;8.070;2024-02-26T14:15:05;4.15;;;2.47;;
74342;SDS011;62767;50.300;8.070;2024-02-26T14:17:32;3.97;;;2.25;;
74342;SDS011;62767;50.300;8.070;2024-02-26T14:19:57;5.85;;;2.35;;
74342;SDS011;62767;50.300;8.070;2024-02-26T14:22:23;4.35;;;2.13;;
74342;SDS011;62767;50.300;8.070;2024-02-26T14:24:49;4.03;;;1.90;;
74342;SDS011;62767;50.300;8.070;2024-02-26T14:27:14;4.20;;;2.33;;
74342;SDS011;62767;50.300;8.070;2024-02-26T14:29:44;5.38;;;3.05;;
74342;SDS011;62767;50.300;8.070;2024-02-26T14:32:09;4.57;;;2.58;;
74342;SDS011;62767;50.300;8.070;2024-02-26T14:34:35;3.75;;;1.92;;
74342;SDS011;62767;50.300;8.070;2024-02-26T14:37:01;5.72;;;2.22;;
74342;SDS011;62767;50.300;8.070;2024-02-26T14:39:27;4.20;;;1.98;;
74342;SDS011;62767;50.300;8.070;2024-02-26T14:41:53;4.68;;;2.30;;
74342;SDS011;62767;50.300;8.070;2024-02-26T14:44:18;6.20;;;2.38;;
74342;SDS011;62767;50.300;8.070;2024-02-26T14:46:43;3.78;;;2.00;;
74342;SDS011;62767;50.300;8.070;2024-02-26T14:49:09;3.55;;;2.25;;
74342;SDS011;62767;50.300;8.070;2024-02-26T14:51:36;4.38;;;2.13;;
74342;SDS011;62767;50.300;8.070;2024-02-26T14:54:02;5.43;;;2.20;;
74342;SDS011;62767;50.300;8.070;2024-02-26T14:56:27;4.40;;;2.33;;
74342;SDS011;62767;50.300;8.070;2024-02-26T14:58:53;5.05;;;2.22;;
74342;SDS011;62767;50.300;8.070;2024-02-26T15:01:18;4.80;;;2.38;;
74342;SDS011;62767;50.300;8.070;2024-02-26T15:03:44;3.92;;;2.03;;
74342;SDS011;62767;50.300;8.070;2024-02-26T15:06:09;5.25;;;2.28;;